sensor_id;sensor_type;location;lat;lon;timestamp;P1;durP1;ratioP1;P2;durP2;ratioP2
29570;SDS011;16814;52.118;11.436;2022-11-18T00:01:10;27.23;;;17.43;;
29570;SDS011;16814;52.118;11.436;2022-11-18T00:03:40;27.65;;;17.85;;
29570;SDS011;16814;52.118;11.436;2022-11-18T00:06:06;28.47;;;18.23;;
29570;SDS011;16814;52.118;11.436;2022-11-18T00:08:35;28.35;;;18.30;;
29570;SDS011;16814;52.118;11.436;2022-11-18T00:11:04;27.70;;;17.98;;
29570;SDS011;16814;52.118;11.436;2022-11-18T00:13:31;27.33;;;17.67;;
29570;SDS011;16814;52.118;11.436;2022-11-18T00:16:15;27.67;;;17.58;;
29570;SDS011;16814;52.118;11.436;2022-11-18T00:18:40;27.80;;;17.90;;
29570;SDS011;16814;52.118;11.436;2022-11-18T00:21:07;28.10;;;17.57;;
29570;SDS011;16814;52.118;11.436;2022-11-18T00:23:34;26.55;;;17.20;;
29570;SDS011;16814;52.118;11.436;2022-11-18T00:26:01;29.52;;;17.20;;
29570;SDS011;16814;52.118;11.436;2022-11-18T00:28:28;30.90;;;18.08;;
29570;SDS011;16814;52.118;11.436;2022-11-18T00:30:59;27.40;;;17.23;;
29570;SDS011;16814;52.118;11.436;2022-11-18T00:33:37;27.83;;;17.10;;
29570;SDS011;16814;52.118;11.436;2022-11-18T00:36:04;30.75;;;17.98;;
29570;SDS011;16814;52.118;11.436;2022-11-18T00:38:31;26.90;;;16.60;;
29570;SDS011;16814;52.118;11.436;2022-11-18T00:40:58;30.90;;;17.70;;
29570;SDS011;16814;52.118;11.436;2022-11-18T00:43:24;27.42;;;16.70;;
29570;SDS011;16814;52.118;11.436;2022-11-18T00:45:50;30.50;;;17.40;;
29570;SDS011;16814;52.118;11.436;2022-11-18T00:48:15;30.73;;;17.77;;
29570;SDS011;16814;52.118;11.436;2022-11-18T00:50:45;27.42;;;16.80;;
29570;SDS011;16814;52.118;11.436;2022-11-18T00:53:15;28.25;;;17.27;;
29570;SDS011;16814;52.118;11.436;2022-11-18T00:55:41;28.95;;;17.30;;
29570;SDS011;16814;52.118;11.436;2022-11-18T00:58:06;30.67;;;17.37;;
29570;SDS011;16814;52.118;11.436;2022-11-18T01:00:32;27.55;;;17.60;;
29570;SDS011;16814;52.118;11.436;2022-11-18T01:02:57;28.43;;;17.67;;
29570;SDS011;16814;52.118;11.436;2022-11-18T01:05:23;29.85;;;18.17;;
29570;SDS011;16814;52.118;11.436;2022-11-18T01:07:48;28.93;;;18.63;;
29570;SDS011;16814;52.118;11.436;2022-11-18T01:10:14;33.13;;;19.80;;
29570;SDS011;16814;52.118;11.436;2022-11-18T01:12:41;32.92;;;20.63;;
29570;SDS011;16814;52.118;11.436;2022-11-18T01:15:25;32.80;;;20.52;;
29570;SDS011;16814;52.118;11.436;2022-11-18T01:17:51;33.83;;;20.83;;
29570;SDS011;16814;52.118;11.436;2022-11-18T01:20:17;33.75;;;20.83;;
29570;SDS011;16814;52.118;11.436;2022-11-18T01:22:42;33.00;;;20.10;;
29570;SDS011;16814;52.118;11.436;2022-11-18T01:25:08;32.15;;;19.90;;
29570;SDS011;16814;52.118;11.436;2022-11-18T01:27:33;33.57;;;20.20;;
29570;SDS011;16814;52.118;11.436;2022-11-18T01:29:59;32.40;;;19.38;;
29570;SDS011;16814;52.118;11.436;2022-11-18T01:32:24;31.50;;;20.17;;
29570;SDS011;16814;52.118;11.436;2022-11-18T01:34:51;33.85;;;19.77;;
29570;SDS011;16814;52.118;11.436;2022-11-18T01:37:17;32.23;;;19.03;;
29570;SDS011;16814;52.118;11.436;2022-11-18T01:39:42;33.88;;;19.27;;
29570;SDS011;16814;52.118;11.436;2022-11-18T01:42:11;32.53;;;19.17;;
29570;SDS011;16814;52.118;11.436;2022-11-18T01:47:38;32.03;;;19.67;;
29570;SDS011;16814;52.118;11.436;2022-11-18T01:50:11;33.80;;;19.77;;
29570;SDS011;16814;52.118;11.436;2022-11-18T01:52:39;34.35;;;20.40;;
29570;SDS011;16814;52.118;11.436;2022-11-18T01:55:16;32.65;;;19.90;;
29570;SDS011;16814;52.118;11.436;2022-11-18T01:57:48;35.38;;;20.73;;
29570;SDS011;16814;52.118;11.436;2022-11-18T02:00:17;33.83;;;20.58;;
29570;SDS011;16814;52.118;11.436;2022-11-18T02:02:44;36.50;;;21.73;;
29570;SDS011;16814;52.118;11.436;2022-11-18T02:05:10;37.85;;;23.55;;
29570;SDS011;16814;52.118;11.436;2022-11-18T02:07:36;38.42;;;22.65;;
29570;SDS011;16814;52.118;11.436;2022-11-18T02:10:06;39.50;;;22.92;;
29570;SDS011;16814;52.118;11.436;2022-11-18T02:12:32;34.93;;;22.00;;
29570;SDS011;16814;52.118;11.436;2022-11-18T02:14:59;39.88;;;22.98;;
29570;SDS011;16814;52.118;11.436;2022-11-18T02:20:11;39.72;;;22.95;;
29570;SDS011;16814;52.118;11.436;2022-11-18T02:31:26;41.13;;;23.63;;
29570;SDS011;16814;52.118;11.436;2022-11-18T02:36:51;37.33;;;21.55;;
29570;SDS011;16814;52.118;11.436;2022-11-18T02:39:28;36.22;;;20.77;;
29570;SDS011;16814;52.118;11.436;2022-11-18T02:41:57;38.97;;;21.00;;
29570;SDS011;16814;52.118;11.436;2022-11-18T02:44:25;34.28;;;20.38;;
29570;SDS011;16814;52.118;11.436;2022-11-18T02:46:54;35.28;;;21.48;;
29570;SDS011;16814;52.118;11.436;2022-11-18T02:49:37;35.67;;;21.35;;
29570;SDS011;16814;52.118;11.436;2022-11-18T02:52:07;37.67;;;21.40;;
29570;SDS011;16814;52.118;11.436;2022-11-18T02:54:36;39.17;;;22.33;;
29570;SDS011;16814;52.118;11.436;2022-11-18T02:57:06;38.30;;;21.08;;
29570;SDS011;16814;52.118;11.436;2022-11-18T02:59:33;36.35;;;21.45;;
29570;SDS011;16814;52.118;11.436;2022-11-18T03:01:58;41.20;;;22.23;;
29570;SDS011;16814;52.118;11.436;2022-11-18T03:04:25;41.53;;;23.37;;
29570;SDS011;16814;52.118;11.436;2022-11-18T03:09:38;47.50;;;24.13;;
29570;SDS011;16814;52.118;11.436;2022-11-18T03:12:16;41.20;;;23.30;;
29570;SDS011;16814;52.118;11.436;2022-11-18T03:15:41;46.53;;;24.90;;
29570;SDS011;16814;52.118;11.436;2022-11-18T03:18:15;48.95;;;25.50;;
29570;SDS011;16814;52.118;11.436;2022-11-18T03:21:19;48.00;;;26.48;;
29570;SDS011;16814;52.118;11.436;2022-11-18T03:23:50;50.97;;;26.50;;
29570;SDS011;16814;52.118;11.436;2022-11-18T03:26:47;51.03;;;27.33;;
29570;SDS011;16814;52.118;11.436;2022-11-18T03:29:25;51.47;;;27.05;;
29570;SDS011;16814;52.118;11.436;2022-11-18T03:32:17;55.45;;;29.95;;
29570;SDS011;16814;52.118;11.436;2022-11-18T03:34:49;62.70;;;30.75;;
29570;SDS011;16814;52.118;11.436;2022-11-18T03:37:21;63.20;;;30.08;;
29570;SDS011;16814;52.118;11.436;2022-11-18T03:39:51;61.72;;;29.05;;
29570;SDS011;16814;52.118;11.436;2022-11-18T03:42:27;66.57;;;30.75;;
29570;SDS011;16814;52.118;11.436;2022-11-18T03:45:09;66.60;;;30.77;;
29570;SDS011;16814;52.118;11.436;2022-11-18T03:47:45;64.68;;;31.70;;
29570;SDS011;16814;52.118;11.436;2022-11-18T03:50:32;63.63;;;32.40;;
29570;SDS011;16814;52.118;11.436;2022-11-18T03:53:04;68.57;;;32.80;;
29570;SDS011;16814;52.118;11.436;2022-11-18T03:55:33;63.13;;;30.80;;
29570;SDS011;16814;52.118;11.436;2022-11-18T03:58:16;61.70;;;29.17;;
29570;SDS011;16814;52.118;11.436;2022-11-18T04:01:07;62.50;;;28.90;;
29570;SDS011;16814;52.118;11.436;2022-11-18T04:03:58;51.20;;;25.33;;
29570;SDS011;16814;52.118;11.436;2022-11-18T04:06:30;58.35;;;28.85;;
29570;SDS011;16814;52.118;11.436;2022-11-18T04:09:08;58.45;;;28.42;;
29570;SDS011;16814;52.118;11.436;2022-11-18T04:11:43;49.60;;;27.13;;
29570;SDS011;16814;52.118;11.436;2022-11-18T04:14:28;51.88;;;25.35;;
29570;SDS011;16814;52.118;11.436;2022-11-18T04:17:02;46.50;;;24.85;;
29570;SDS011;16814;52.118;11.436;2022-11-18T04:19:38;47.58;;;23.85;;
29570;SDS011;16814;52.118;11.436;2022-11-18T04:22:04;47.42;;;24.95;;
29570;SDS011;16814;52.118;11.436;2022-11-18T04:24:30;49.47;;;25.38;;
29570;SDS011;16814;52.118;11.436;2022-11-18T04:26:57;51.72;;;25.67;;
29570;SDS011;16814;52.118;11.436;2022-11-18T04:29:26;51.93;;;26.60;;
29570;SDS011;16814;52.118;11.436;2022-11-18T04:31:52;50.67;;;25.80;;
29570;SDS011;16814;52.118;11.436;2022-11-18T04:34:17;53.33;;;27.70;;
29570;SDS011;16814;52.118;11.436;2022-11-18T04:36:46;55.80;;;28.13;;
29570;SDS011;16814;52.118;11.436;2022-11-18T04:39:11;61.47;;;28.97;;
29570;SDS011;16814;52.118;11.436;2022-11-18T04:41:38;60.78;;;28.40;;
29570;SDS011;16814;52.118;11.436;2022-11-18T04:44:21;59.00;;;29.25;;
29570;SDS011;16814;52.118;11.436;2022-11-18T04:46:47;59.20;;;30.07;;
29570;SDS011;16814;52.118;11.436;2022-11-18T04:49:14;63.72;;;31.02;;
29570;SDS011;16814;52.118;11.436;2022-11-18T04:51:41;69.05;;;32.35;;
29570;SDS011;16814;52.118;11.436;2022-11-18T04:54:09;62.83;;;31.05;;
29570;SDS011;16814;52.118;11.436;2022-11-18T04:56:36;68.35;;;33.15;;
29570;SDS011;16814;52.118;11.436;2022-11-18T04:59:04;74.43;;;34.70;;
29570;SDS011;16814;52.118;11.436;2022-11-18T05:01:30;73.90;;;33.90;;
29570;SDS011;16814;52.118;11.436;2022-11-18T05:03:58;74.97;;;33.88;;
29570;SDS011;16814;52.118;11.436;2022-11-18T05:06:27;71.30;;;34.13;;
29570;SDS011;16814;52.118;11.436;2022-11-18T05:08:58;74.50;;;34.38;;
29570;SDS011;16814;52.118;11.436;2022-11-18T05:11:26;74.15;;;35.70;;
29570;SDS011;16814;52.118;11.436;2022-11-18T05:14:12;72.50;;;35.03;;
29570;SDS011;16814;52.118;11.436;2022-11-18T05:16:39;76.57;;;35.30;;
29570;SDS011;16814;52.118;11.436;2022-11-18T05:19:05;72.15;;;33.17;;
29570;SDS011;16814;52.118;11.436;2022-11-18T05:21:34;68.75;;;33.50;;
29570;SDS011;16814;52.118;11.436;2022-11-18T05:24:00;74.95;;;34.38;;
29570;SDS011;16814;52.118;11.436;2022-11-18T05:26:26;71.72;;;34.97;;
29570;SDS011;16814;52.118;11.436;2022-11-18T05:28:52;68.72;;;33.20;;
29570;SDS011;16814;52.118;11.436;2022-11-18T05:31:20;71.35;;;34.42;;
29570;SDS011;16814;52.118;11.436;2022-11-18T05:33:47;77.70;;;36.00;;
29570;SDS011;16814;52.118;11.436;2022-11-18T05:36:15;73.93;;;34.90;;
29570;SDS011;16814;52.118;11.436;2022-11-18T05:38:42;79.68;;;35.25;;
29570;SDS011;16814;52.118;11.436;2022-11-18T05:41:08;81.53;;;36.50;;
29570;SDS011;16814;52.118;11.436;2022-11-18T05:44:04;79.88;;;34.78;;
29570;SDS011;16814;52.118;11.436;2022-11-18T05:46:34;78.78;;;34.95;;
29570;SDS011;16814;52.118;11.436;2022-11-18T05:48:59;79.03;;;36.55;;
29570;SDS011;16814;52.118;11.436;2022-11-18T05:51:26;81.43;;;35.30;;
29570;SDS011;16814;52.118;11.436;2022-11-18T05:53:53;79.82;;;34.92;;
29570;SDS011;16814;52.118;11.436;2022-11-18T05:56:32;81.72;;;34.55;;
29570;SDS011;16814;52.118;11.436;2022-11-18T05:59:06;82.00;;;36.08;;
29570;SDS011;16814;52.118;11.436;2022-11-18T06:04:22;85.40;;;40.30;;
29570;SDS011;16814;52.118;11.436;2022-11-18T06:07:05;83.32;;;35.20;;
29570;SDS011;16814;52.118;11.436;2022-11-18T06:09:48;82.30;;;34.65;;
29570;SDS011;16814;52.118;11.436;2022-11-18T06:12:19;76.70;;;33.75;;
29570;SDS011;16814;52.118;11.436;2022-11-18T06:14:53;74.05;;;33.78;;
29570;SDS011;16814;52.118;11.436;2022-11-18T06:17:32;84.78;;;35.88;;
29570;SDS011;16814;52.118;11.436;2022-11-18T06:20:05;76.90;;;34.22;;
29570;SDS011;16814;52.118;11.436;2022-11-18T06:22:32;80.75;;;34.85;;
29570;SDS011;16814;52.118;11.436;2022-11-18T06:24:59;89.22;;;37.28;;
29570;SDS011;16814;52.118;11.436;2022-11-18T06:27:28;93.95;;;37.92;;
29570;SDS011;16814;52.118;11.436;2022-11-18T06:29:54;95.22;;;39.20;;
29570;SDS011;16814;52.118;11.436;2022-11-18T06:32:19;91.43;;;36.93;;
29570;SDS011;16814;52.118;11.436;2022-11-18T06:34:45;88.47;;;37.45;;
29570;SDS011;16814;52.118;11.436;2022-11-18T06:37:16;90.28;;;38.83;;
29570;SDS011;16814;52.118;11.436;2022-11-18T06:39:46;85.15;;;34.67;;
29570;SDS011;16814;52.118;11.436;2022-11-18T06:42:13;87.90;;;35.10;;
29570;SDS011;16814;52.118;11.436;2022-11-18T06:45:06;83.00;;;35.63;;
29570;SDS011;16814;52.118;11.436;2022-11-18T06:47:32;72.97;;;33.03;;
29570;SDS011;16814;52.118;11.436;2022-11-18T06:49:58;69.82;;;29.90;;
29570;SDS011;16814;52.118;11.436;2022-11-18T06:52:28;57.60;;;28.50;;
29570;SDS011;16814;52.118;11.436;2022-11-18T06:54:54;60.95;;;27.35;;
29570;SDS011;16814;52.118;11.436;2022-11-18T06:57:21;58.65;;;28.25;;
29570;SDS011;16814;52.118;11.436;2022-11-18T06:59:48;53.83;;;26.77;;
29570;SDS011;16814;52.118;11.436;2022-11-18T07:02:16;55.67;;;27.80;;
29570;SDS011;16814;52.118;11.436;2022-11-18T07:04:44;54.92;;;26.50;;
29570;SDS011;16814;52.118;11.436;2022-11-18T07:07:10;56.92;;;27.83;;
29570;SDS011;16814;52.118;11.436;2022-11-18T07:09:37;56.22;;;27.23;;
29570;SDS011;16814;52.118;11.436;2022-11-18T07:12:05;60.60;;;28.88;;
29570;SDS011;16814;52.118;11.436;2022-11-18T07:14:32;59.63;;;27.98;;
29570;SDS011;16814;52.118;11.436;2022-11-18T07:17:00;58.05;;;28.67;;
29570;SDS011;16814;52.118;11.436;2022-11-18T07:19:26;64.82;;;29.75;;
29570;SDS011;16814;52.118;11.436;2022-11-18T07:21:51;63.22;;;28.75;;
29570;SDS011;16814;52.118;11.436;2022-11-18T07:24:18;60.70;;;28.92;;
29570;SDS011;16814;52.118;11.436;2022-11-18T07:26:44;65.55;;;30.40;;
29570;SDS011;16814;52.118;11.436;2022-11-18T07:29:20;63.83;;;30.20;;
29570;SDS011;16814;52.118;11.436;2022-11-18T07:31:47;64.03;;;30.20;;
29570;SDS011;16814;52.118;11.436;2022-11-18T07:34:14;65.05;;;29.63;;
29570;SDS011;16814;52.118;11.436;2022-11-18T07:36:42;70.25;;;35.00;;
29570;SDS011;16814;52.118;11.436;2022-11-18T07:39:10;74.32;;;37.08;;
29570;SDS011;16814;52.118;11.436;2022-11-18T07:41:37;74.00;;;36.58;;
29570;SDS011;16814;52.118;11.436;2022-11-18T07:44:05;77.53;;;37.47;;
29570;SDS011;16814;52.118;11.436;2022-11-18T07:46:32;78.00;;;39.33;;
29570;SDS011;16814;52.118;11.436;2022-11-18T07:49:00;74.30;;;36.50;;
29570;SDS011;16814;52.118;11.436;2022-11-18T07:51:28;75.03;;;37.53;;
29570;SDS011;16814;52.118;11.436;2022-11-18T07:53:58;73.93;;;35.97;;
29570;SDS011;16814;52.118;11.436;2022-11-18T07:56:23;67.93;;;35.63;;
29570;SDS011;16814;52.118;11.436;2022-11-18T07:58:52;66.32;;;33.15;;
29570;SDS011;16814;52.118;11.436;2022-11-18T08:01:20;69.53;;;34.60;;
29570;SDS011;16814;52.118;11.436;2022-11-18T08:03:47;65.45;;;32.97;;
29570;SDS011;16814;52.118;11.436;2022-11-18T08:06:14;62.15;;;32.63;;
29570;SDS011;16814;52.118;11.436;2022-11-18T08:08:41;63.78;;;31.67;;
29570;SDS011;16814;52.118;11.436;2022-11-18T08:11:09;67.90;;;31.80;;
29570;SDS011;16814;52.118;11.436;2022-11-18T08:13:37;66.68;;;32.85;;
29570;SDS011;16814;52.118;11.436;2022-11-18T08:16:02;64.38;;;31.67;;
29570;SDS011;16814;52.118;11.436;2022-11-18T08:18:29;61.50;;;31.00;;
29570;SDS011;16814;52.118;11.436;2022-11-18T08:21:00;58.95;;;30.02;;
29570;SDS011;16814;52.118;11.436;2022-11-18T08:23:29;58.70;;;29.70;;
29570;SDS011;16814;52.118;11.436;2022-11-18T08:26:00;56.70;;;28.85;;
29570;SDS011;16814;52.118;11.436;2022-11-18T08:28:29;51.63;;;28.27;;
29570;SDS011;16814;52.118;11.436;2022-11-18T08:30:56;56.93;;;29.43;;
29570;SDS011;16814;52.118;11.436;2022-11-18T08:33:22;52.40;;;27.40;;
29570;SDS011;16814;52.118;11.436;2022-11-18T08:35:51;52.90;;;27.23;;
29570;SDS011;16814;52.118;11.436;2022-11-18T08:38:19;64.57;;;32.03;;
29570;SDS011;16814;52.118;11.436;2022-11-18T08:40:47;63.17;;;32.60;;
29570;SDS011;16814;52.118;11.436;2022-11-18T08:43:15;59.78;;;30.55;;
29570;SDS011;16814;52.118;11.436;2022-11-18T08:45:42;54.58;;;27.35;;
29570;SDS011;16814;52.118;11.436;2022-11-18T08:48:09;50.17;;;25.73;;
29570;SDS011;16814;52.118;11.436;2022-11-18T08:50:36;54.65;;;26.30;;
29570;SDS011;16814;52.118;11.436;2022-11-18T08:53:03;51.75;;;24.92;;
29570;SDS011;16814;52.118;11.436;2022-11-18T08:55:28;49.17;;;24.47;;
29570;SDS011;16814;52.118;11.436;2022-11-18T08:57:54;53.53;;;25.92;;
29570;SDS011;16814;52.118;11.436;2022-11-18T09:00:19;51.83;;;25.97;;
29570;SDS011;16814;52.118;11.436;2022-11-18T09:02:45;52.30;;;27.45;;
29570;SDS011;16814;52.118;11.436;2022-11-18T09:05:11;50.83;;;25.73;;
29570;SDS011;16814;52.118;11.436;2022-11-18T09:07:36;50.40;;;25.98;;
29570;SDS011;16814;52.118;11.436;2022-11-18T09:10:02;49.83;;;27.03;;
29570;SDS011;16814;52.118;11.436;2022-11-18T09:12:29;51.80;;;27.55;;
29570;SDS011;16814;52.118;11.436;2022-11-18T09:14:56;47.72;;;26.45;;
29570;SDS011;16814;52.118;11.436;2022-11-18T09:17:23;53.72;;;29.67;;
29570;SDS011;16814;52.118;11.436;2022-11-18T09:19:48;48.92;;;26.45;;
29570;SDS011;16814;52.118;11.436;2022-11-18T09:22:14;49.30;;;26.50;;
29570;SDS011;16814;52.118;11.436;2022-11-18T09:24:41;53.78;;;28.35;;
29570;SDS011;16814;52.118;11.436;2022-11-18T09:27:10;51.83;;;28.83;;
29570;SDS011;16814;52.118;11.436;2022-11-18T09:29:35;51.08;;;28.10;;
29570;SDS011;16814;52.118;11.436;2022-11-18T09:32:03;49.25;;;28.15;;
29570;SDS011;16814;52.118;11.436;2022-11-18T09:34:29;48.50;;;28.30;;
29570;SDS011;16814;52.118;11.436;2022-11-18T09:36:57;47.80;;;27.27;;
29570;SDS011;16814;52.118;11.436;2022-11-18T09:39:24;49.30;;;25.85;;
29570;SDS011;16814;52.118;11.436;2022-11-18T09:41:57;44.20;;;24.98;;
29570;SDS011;16814;52.118;11.436;2022-11-18T09:50:16;46.55;;;26.63;;
29570;SDS011;16814;52.118;11.436;2022-11-18T09:55:15;53.13;;;28.37;;
29570;SDS011;16814;52.118;11.436;2022-11-18T09:57:43;55.55;;;30.20;;
29570;SDS011;16814;52.118;11.436;2022-11-18T10:00:22;61.95;;;32.95;;
29570;SDS011;16814;52.118;11.436;2022-11-18T10:02:56;64.63;;;33.38;;
29570;SDS011;16814;52.118;11.436;2022-11-18T10:05:31;64.15;;;34.65;;
29570;SDS011;16814;52.118;11.436;2022-11-18T10:08:13;68.47;;;35.60;;
29570;SDS011;16814;52.118;11.436;2022-11-18T10:10:57;69.63;;;36.63;;
29570;SDS011;16814;52.118;11.436;2022-11-18T10:13:39;67.30;;;35.67;;
29570;SDS011;16814;52.118;11.436;2022-11-18T10:19:14;70.38;;;37.15;;
29570;SDS011;16814;52.118;11.436;2022-11-18T10:24:40;75.70;;;36.33;;
29570;SDS011;16814;52.118;11.436;2022-11-18T10:27:12;75.15;;;38.22;;
29570;SDS011;16814;52.118;11.436;2022-11-18T10:29:39;75.95;;;39.83;;
29570;SDS011;16814;52.118;11.436;2022-11-18T10:32:06;75.93;;;39.00;;
29570;SDS011;16814;52.118;11.436;2022-11-18T10:34:45;72.05;;;37.30;;
29570;SDS011;16814;52.118;11.436;2022-11-18T10:37:23;78.90;;;40.83;;
29570;SDS011;16814;52.118;11.436;2022-11-18T10:39:54;99.63;;;51.07;;
29570;SDS011;16814;52.118;11.436;2022-11-18T10:42:26;122.95;;;62.17;;
29570;SDS011;16814;52.118;11.436;2022-11-18T10:45:14;92.70;;;46.67;;
29570;SDS011;16814;52.118;11.436;2022-11-18T10:50:40;82.72;;;44.78;;
29570;SDS011;16814;52.118;11.436;2022-11-18T10:53:33;80.30;;;41.72;;
29570;SDS011;16814;52.118;11.436;2022-11-18T10:56:06;70.65;;;37.15;;
29570;SDS011;16814;52.118;11.436;2022-11-18T10:58:36;76.25;;;38.47;;
29570;SDS011;16814;52.118;11.436;2022-11-18T11:01:07;70.47;;;37.83;;
29570;SDS011;16814;52.118;11.436;2022-11-18T11:06:29;65.45;;;34.85;;
29570;SDS011;16814;52.118;11.436;2022-11-18T11:12:08;64.00;;;32.67;;
29570;SDS011;16814;52.118;11.436;2022-11-18T11:17:38;61.67;;;31.40;;
29570;SDS011;16814;52.118;11.436;2022-11-18T11:20:18;62.47;;;33.22;;
29570;SDS011;16814;52.118;11.436;2022-11-18T11:22:49;68.47;;;34.80;;
29570;SDS011;16814;52.118;11.436;2022-11-18T11:25:20;69.97;;;35.15;;
29570;SDS011;16814;52.118;11.436;2022-11-18T11:28:01;65.57;;;34.15;;
29570;SDS011;16814;52.118;11.436;2022-11-18T11:48:08;62.17;;;33.58;;
29570;SDS011;16814;52.118;11.436;2022-11-18T11:51:00;66.47;;;34.78;;
29570;SDS011;16814;52.118;11.436;2022-11-18T11:53:53;66.20;;;35.45;;
29570;SDS011;16814;52.118;11.436;2022-11-18T11:56:37;63.80;;;34.17;;
29570;SDS011;16814;52.118;11.436;2022-11-18T12:04:59;68.00;;;35.58;;
29570;SDS011;16814;52.118;11.436;2022-11-18T12:13:09;70.03;;;36.50;;
29570;SDS011;16814;52.118;11.436;2022-11-18T12:18:41;67.40;;;35.38;;
29570;SDS011;16814;52.118;11.436;2022-11-18T12:24:23;71.43;;;37.33;;
29570;SDS011;16814;52.118;11.436;2022-11-18T12:30:19;63.17;;;33.58;;
29570;SDS011;16814;52.118;11.436;2022-11-18T12:32:45;70.30;;;35.38;;
29570;SDS011;16814;52.118;11.436;2022-11-18T12:35:23;66.10;;;35.65;;
29570;SDS011;16814;52.118;11.436;2022-11-18T12:43:10;71.68;;;39.78;;
29570;SDS011;16814;52.118;11.436;2022-11-18T12:51:49;66.03;;;35.13;;
29570;SDS011;16814;52.118;11.436;2022-11-18T12:54:32;67.85;;;35.10;;
29570;SDS011;16814;52.118;11.436;2022-11-18T12:57:04;69.90;;;35.63;;
29570;SDS011;16814;52.118;11.436;2022-11-18T12:59:54;68.28;;;36.58;;
29570;SDS011;16814;52.118;11.436;2022-11-18T13:02:23;69.00;;;37.03;;
29570;SDS011;16814;52.118;11.436;2022-11-18T13:05:03;71.97;;;37.90;;
29570;SDS011;16814;52.118;11.436;2022-11-18T13:07:45;73.70;;;38.47;;
29570;SDS011;16814;52.118;11.436;2022-11-18T13:10:54;73.85;;;40.22;;
29570;SDS011;16814;52.118;11.436;2022-11-18T13:13:45;69.80;;;38.63;;
29570;SDS011;16814;52.118;11.436;2022-11-18T13:16:22;77.07;;;39.07;;
29570;SDS011;16814;52.118;11.436;2022-11-18T13:19:19;77.83;;;36.87;;
29570;SDS011;16814;52.118;11.436;2022-11-18T13:21:52;70.28;;;38.20;;
29570;SDS011;16814;52.118;11.436;2022-11-18T13:24:42;73.60;;;39.45;;
29570;SDS011;16814;52.118;11.436;2022-11-18T13:27:25;72.80;;;40.25;;
29570;SDS011;16814;52.118;11.436;2022-11-18T13:30:05;65.43;;;36.60;;
29570;SDS011;16814;52.118;11.436;2022-11-18T13:32:49;66.35;;;36.95;;
29570;SDS011;16814;52.118;11.436;2022-11-18T13:35:23;66.50;;;37.90;;
29570;SDS011;16814;52.118;11.436;2022-11-18T13:38:00;84.53;;;46.90;;
29570;SDS011;16814;52.118;11.436;2022-11-18T13:40:27;69.22;;;38.85;;
29570;SDS011;16814;52.118;11.436;2022-11-18T13:43:27;63.97;;;36.45;;
29570;SDS011;16814;52.118;11.436;2022-11-18T13:45:55;60.00;;;34.17;;
29570;SDS011;16814;52.118;11.436;2022-11-18T13:48:22;62.22;;;34.95;;
29570;SDS011;16814;52.118;11.436;2022-11-18T13:50:49;61.20;;;35.35;;
29570;SDS011;16814;52.118;11.436;2022-11-18T13:56:06;59.25;;;33.03;;
29570;SDS011;16814;52.118;11.436;2022-11-18T14:01:29;57.88;;;32.40;;
29570;SDS011;16814;52.118;11.436;2022-11-18T14:04:04;55.78;;;32.05;;
29570;SDS011;16814;52.118;11.436;2022-11-18T14:07:14;56.78;;;32.40;;
29570;SDS011;16814;52.118;11.436;2022-11-18T14:10:06;53.80;;;31.10;;
29570;SDS011;16814;52.118;11.436;2022-11-18T14:12:40;51.80;;;30.45;;
29570;SDS011;16814;52.118;11.436;2022-11-18T14:17:57;63.20;;;37.30;;
29570;SDS011;16814;52.118;11.436;2022-11-18T14:20:25;51.78;;;29.92;;
29570;SDS011;16814;52.118;11.436;2022-11-18T14:23:00;50.08;;;29.05;;
29570;SDS011;16814;52.118;11.436;2022-11-18T14:25:32;50.13;;;28.55;;
29570;SDS011;16814;52.118;11.436;2022-11-18T14:30:41;47.42;;;28.15;;
29570;SDS011;16814;52.118;11.436;2022-11-18T14:33:28;52.60;;;28.25;;
29570;SDS011;16814;52.118;11.436;2022-11-18T14:36:13;45.92;;;27.48;;
29570;SDS011;16814;52.118;11.436;2022-11-18T14:38:45;48.05;;;26.25;;
29570;SDS011;16814;52.118;11.436;2022-11-18T14:41:19;48.42;;;27.25;;
29570;SDS011;16814;52.118;11.436;2022-11-18T14:44:18;44.73;;;27.13;;
29570;SDS011;16814;52.118;11.436;2022-11-18T14:46:47;47.75;;;26.30;;
29570;SDS011;16814;52.118;11.436;2022-11-18T14:49:22;42.13;;;24.08;;
29570;SDS011;16814;52.118;11.436;2022-11-18T14:51:50;40.33;;;22.45;;
29570;SDS011;16814;52.118;11.436;2022-11-18T14:54:24;40.63;;;23.40;;
29570;SDS011;16814;52.118;11.436;2022-11-18T14:56:51;40.03;;;22.25;;
29570;SDS011;16814;52.118;11.436;2022-11-18T14:59:23;42.53;;;24.23;;
29570;SDS011;16814;52.118;11.436;2022-11-18T15:01:49;40.45;;;23.23;;
29570;SDS011;16814;52.118;11.436;2022-11-18T15:04:15;40.03;;;23.33;;
29570;SDS011;16814;52.118;11.436;2022-11-18T15:06:47;39.40;;;23.55;;
29570;SDS011;16814;52.118;11.436;2022-11-18T15:09:12;39.07;;;22.47;;
29570;SDS011;16814;52.118;11.436;2022-11-18T15:11:38;37.15;;;21.98;;
29570;SDS011;16814;52.118;11.436;2022-11-18T15:14:05;38.10;;;23.53;;
29570;SDS011;16814;52.118;11.436;2022-11-18T15:16:33;41.97;;;23.02;;
29570;SDS011;16814;52.118;11.436;2022-11-18T15:19:00;42.00;;;24.87;;
29570;SDS011;16814;52.118;11.436;2022-11-18T15:21:28;39.83;;;23.45;;
29570;SDS011;16814;52.118;11.436;2022-11-18T15:23:54;35.70;;;21.50;;
29570;SDS011;16814;52.118;11.436;2022-11-18T15:26:22;34.90;;;22.20;;
29570;SDS011;16814;52.118;11.436;2022-11-18T15:28:53;40.17;;;23.92;;
29570;SDS011;16814;52.118;11.436;2022-11-18T15:31:21;36.53;;;21.33;;
29570;SDS011;16814;52.118;11.436;2022-11-18T15:33:50;35.35;;;21.30;;
29570;SDS011;16814;52.118;11.436;2022-11-18T15:36:20;36.78;;;22.55;;
29570;SDS011;16814;52.118;11.436;2022-11-18T15:38:49;37.03;;;21.75;;
29570;SDS011;16814;52.118;11.436;2022-11-18T15:41:24;40.35;;;23.05;;
29570;SDS011;16814;52.118;11.436;2022-11-18T15:43:55;37.50;;;22.52;;
29570;SDS011;16814;52.118;11.436;2022-11-18T15:46:25;37.90;;;22.58;;
29570;SDS011;16814;52.118;11.436;2022-11-18T15:48:54;40.05;;;22.98;;
29570;SDS011;16814;52.118;11.436;2022-11-18T15:51:23;37.75;;;21.35;;
29570;SDS011;16814;52.118;11.436;2022-11-18T15:53:50;36.42;;;22.88;;
29570;SDS011;16814;52.118;11.436;2022-11-18T15:59:04;38.27;;;23.33;;
29570;SDS011;16814;52.118;11.436;2022-11-18T16:01:34;36.20;;;22.30;;
29570;SDS011;16814;52.118;11.436;2022-11-18T16:04:04;41.50;;;25.23;;
29570;SDS011;16814;52.118;11.436;2022-11-18T16:06:31;39.47;;;23.40;;
29570;SDS011;16814;52.118;11.436;2022-11-18T16:09:00;36.30;;;22.60;;
29570;SDS011;16814;52.118;11.436;2022-11-18T16:11:27;39.50;;;23.98;;
29570;SDS011;16814;52.118;11.436;2022-11-18T16:14:12;39.42;;;23.08;;
29570;SDS011;16814;52.118;11.436;2022-11-18T16:16:41;40.03;;;22.63;;
29570;SDS011;16814;52.118;11.436;2022-11-18T16:19:10;40.00;;;24.27;;
29570;SDS011;16814;52.118;11.436;2022-11-18T16:21:39;36.63;;;22.33;;
29570;SDS011;16814;52.118;11.436;2022-11-18T16:24:10;36.42;;;21.35;;
29570;SDS011;16814;52.118;11.436;2022-11-18T16:26:37;41.73;;;23.37;;